createdAt,value
2023-04-22T00:00:43.595Z,11.03
2023-04-22T00:03:15.566Z,11.02
2023-04-22T00:05:47.848Z,10.87
2023-04-22T00:08:21.985Z,10.69
2023-04-22T00:10:53.576Z,10.64
2023-04-22T00:13:25.190Z,10.63
2023-04-22T00:15:56.895Z,10.66
2023-04-22T00:18:28.423Z,10.70
2023-04-22T00:20:59.928Z,10.69
2023-04-22T00:23:31.574Z,10.73
2023-04-22T00:26:03.567Z,10.74
2023-04-22T00:28:35.209Z,10.73
2023-04-22T00:31:06.781Z,10.69
2023-04-22T00:33:38.287Z,10.68
2023-04-22T00:36:09.950Z,10.66
2023-04-22T00:38:46.357Z,10.68
2023-04-22T00:41:18.357Z,10.60
2023-04-22T00:43:51.096Z,10.60
2023-04-22T00:46:22.961Z,10.56
2023-04-22T00:48:55.154Z,10.52
2023-04-22T00:51:27.991Z,10.46
2023-04-22T00:54:01.853Z,10.41
2023-04-22T00:56:36.082Z,10.47
2023-04-22T00:59:09.152Z,10.38
2023-04-22T01:01:40.716Z,10.33
2023-04-22T01:04:14.353Z,10.30
2023-04-22T01:06:47.369Z,10.34
2023-04-22T01:09:20.649Z,10.24
2023-04-22T01:11:52.192Z,10.20
2023-04-22T01:14:24.482Z,10.25
2023-04-22T01:16:56.069Z,10.23
2023-04-22T01:19:29.365Z,10.20
2023-04-22T01:22:02.512Z,10.24
2023-04-22T01:24:34.745Z,10.23
2023-04-22T01:27:06.715Z,10.19
2023-04-22T01:29:38.843Z,10.20
2023-04-22T01:32:10.752Z,10.08
2023-04-22T01:34:42.284Z,10.11
2023-04-22T01:37:13.797Z,10.09
2023-04-22T01:39:46.853Z,10.10
2023-04-22T01:42:19.018Z,10.12
2023-04-22T01:44:50.616Z,10.09
2023-04-22T01:47:22.154Z,10.07
2023-04-22T01:49:53.693Z,10.06
2023-04-22T01:52:27.583Z,10.03
2023-04-22T01:54:59.201Z,9.96
2023-04-22T01:57:30.705Z,9.94
2023-04-22T02:00:02.742Z,9.95
2023-04-22T02:02:34.522Z,9.92
2023-04-22T02:05:09.534Z,9.87
2023-04-22T02:07:41.066Z,9.88
2023-04-22T02:10:12.704Z,9.85
2023-04-22T02:12:44.297Z,9.79
2023-04-22T02:15:16.424Z,9.73
2023-04-22T02:17:48.591Z,9.76
2023-04-22T02:20:20.210Z,9.76
2023-04-22T02:22:51.771Z,9.75
2023-04-22T02:25:23.353Z,9.64
2023-04-22T02:27:54.910Z,9.51
2023-04-22T02:30:26.467Z,9.45
2023-04-22T02:32:58.070Z,9.43
2023-04-22T02:35:29.562Z,9.39
2023-04-22T02:38:01.088Z,9.43
2023-04-22T02:40:32.576Z,9.43
2023-04-22T02:43:04.197Z,9.44
2023-04-22T02:45:35.991Z,9.42
2023-04-22T02:48:07.899Z,9.38
2023-04-22T02:50:39.612Z,9.38
2023-04-22T02:53:11.080Z,9.30
2023-04-22T02:55:42.793Z,9.24
2023-04-22T02:58:14.269Z,9.23
2023-04-22T03:00:45.828Z,9.19
2023-04-22T03:03:17.490Z,9.17
2023-04-22T03:05:49.214Z,9.17
2023-04-22T03:08:20.908Z,9.13
2023-04-22T03:10:52.531Z,9.10
2023-04-22T03:13:24.012Z,9.07
2023-04-22T03:15:56.490Z,8.98
2023-04-22T03:18:27.944Z,8.96
2023-04-22T03:21:00.896Z,8.84
2023-04-22T03:23:32.630Z,8.75
2023-04-22T03:26:04.295Z,8.73
2023-04-22T03:28:36.150Z,8.68
2023-04-22T03:31:07.771Z,8.65
2023-04-22T03:33:39.289Z,8.57
2023-04-22T03:36:10.835Z,8.53
2023-04-22T03:38:42.309Z,8.55
2023-04-22T03:41:13.762Z,8.55
2023-04-22T03:43:45.202Z,8.54
2023-04-22T03:46:16.902Z,8.52
2023-04-22T03:48:48.435Z,8.51
2023-04-22T03:51:19.984Z,8.52
2023-04-22T03:53:51.556Z,8.51
2023-04-22T03:56:24.424Z,8.47
2023-04-22T03:58:56.299Z,8.43
2023-04-22T04:01:27.783Z,8.41
2023-04-22T04:03:59.512Z,8.35
2023-04-22T04:06:31.908Z,8.24
2023-04-22T04:09:04.035Z,8.20
2023-04-22T04:11:35.559Z,8.26
2023-04-22T04:14:08.046Z,8.31
2023-04-22T04:16:39.517Z,8.32
2023-04-22T04:19:11.124Z,8.32
2023-04-22T04:21:43.412Z,8.34
2023-04-22T04:24:15.067Z,8.32
2023-04-22T04:26:47.257Z,8.31
2023-04-22T04:29:21.530Z,8.33
2023-04-22T04:31:53.209Z,8.31
2023-04-22T04:34:25.618Z,8.32
2023-04-22T04:36:56.989Z,8.34
2023-04-22T04:39:28.672Z,8.36
2023-04-22T04:42:00.546Z,8.40
2023-04-22T04:44:32.195Z,8.35
2023-04-22T04:49:40.604Z,8.31
2023-04-22T04:52:12.457Z,8.35
2023-04-22T04:54:44.008Z,8.42
2023-04-22T04:57:16.201Z,8.53
2023-04-22T04:59:47.730Z,8.62
2023-04-22T05:02:19.307Z,8.70
2023-04-22T05:04:51.072Z,8.77
2023-04-22T05:07:22.675Z,8.88
2023-04-22T05:09:54.204Z,8.94
2023-04-22T05:12:25.699Z,9.06
2023-04-22T05:14:57.182Z,9.10
2023-04-22T05:17:28.885Z,9.16
2023-04-22T05:20:00.428Z,9.25
2023-04-22T05:22:31.922Z,9.30
2023-04-22T05:25:04.403Z,9.42
2023-04-22T05:27:35.763Z,9.55
2023-04-22T05:30:08.001Z,9.62
2023-04-22T05:32:39.516Z,9.70
2023-04-22T05:35:14.049Z,9.78
2023-04-22T05:37:47.582Z,9.90
2023-04-22T05:40:19.368Z,9.90
2023-04-22T05:42:50.850Z,9.77
2023-04-22T05:45:22.309Z,9.75
2023-04-22T05:47:53.828Z,9.94
2023-04-22T05:50:25.828Z,10.27
2023-04-22T05:52:57.370Z,10.63
2023-04-22T05:55:28.882Z,10.77
2023-04-22T05:58:00.504Z,10.87
2023-04-22T06:00:33.290Z,10.75
2023-04-22T06:03:05.020Z,10.79
2023-04-22T06:05:36.747Z,10.76
2023-04-22T06:08:08.326Z,10.87
2023-04-22T06:10:39.835Z,10.99
2023-04-22T06:13:11.661Z,11.07
2023-04-22T06:15:43.214Z,11.13
2023-04-22T06:18:14.807Z,11.31
2023-04-22T06:20:46.327Z,11.46
2023-04-22T06:23:17.851Z,11.64
2023-04-22T06:25:49.404Z,11.71
2023-04-22T06:28:21.107Z,11.81
2023-04-22T06:30:52.665Z,11.95
2023-04-22T06:33:24.259Z,12.12
2023-04-22T06:35:55.720Z,12.21
2023-04-22T06:38:27.342Z,12.35
2023-04-22T06:40:58.792Z,12.48
2023-04-22T06:43:30.271Z,12.60
2023-04-22T06:46:01.741Z,12.65
2023-04-22T06:48:33.248Z,12.75
2023-04-22T06:51:04.777Z,12.83
2023-04-22T06:53:36.314Z,12.93
2023-04-22T06:56:07.832Z,12.96
2023-04-22T06:58:39.359Z,13.08
2023-04-22T07:01:10.862Z,13.13
2023-04-22T07:03:42.487Z,13.20
2023-04-22T07:06:14.133Z,13.26
2023-04-22T07:08:45.675Z,13.35
2023-04-22T07:11:17.177Z,13.38
2023-04-22T07:13:48.760Z,13.39
2023-04-22T07:16:20.271Z,13.36
2023-04-22T07:18:51.757Z,13.46
2023-04-22T07:21:23.262Z,13.55
2023-04-22T07:23:54.779Z,13.51
2023-04-22T07:26:26.350Z,13.55
2023-04-22T07:28:58.144Z,13.62
2023-04-22T07:31:29.744Z,13.70
2023-04-22T07:34:01.254Z,13.77
2023-04-22T07:36:33.170Z,13.83
2023-04-22T07:39:04.717Z,13.91
2023-04-22T07:41:36.425Z,14.00
2023-04-22T07:44:07.973Z,14.07
2023-04-22T07:46:39.580Z,14.08
2023-04-22T07:49:13.880Z,14.16
2023-04-22T07:51:45.820Z,14.25
2023-04-22T07:54:17.343Z,14.30
2023-04-22T07:56:48.856Z,14.43
2023-04-22T07:59:20.323Z,14.47
2023-04-22T08:01:51.809Z,14.60
2023-04-22T08:04:23.987Z,14.74
2023-04-22T08:06:56.137Z,14.77
2023-04-22T08:09:27.613Z,14.93
2023-04-22T08:11:59.143Z,14.95
2023-04-22T08:14:30.596Z,15.09
2023-04-22T08:17:02.046Z,15.16
2023-04-22T08:19:33.542Z,15.27
2023-04-22T08:22:05.034Z,15.40
2023-04-22T08:24:36.485Z,15.40
2023-04-22T08:27:08.188Z,15.51
2023-04-22T08:29:39.835Z,15.67
2023-04-22T08:32:11.616Z,15.72
2023-04-22T08:34:43.909Z,15.87
2023-04-22T08:37:15.977Z,15.99
2023-04-22T08:39:47.450Z,16.16
2023-04-22T08:42:20.910Z,16.25
2023-04-22T08:44:53.729Z,16.36
2023-04-22T08:47:25.657Z,16.37
2023-04-22T08:49:58.831Z,16.45
2023-04-22T08:52:31.307Z,16.51
2023-04-22T08:55:02.807Z,16.64
2023-04-22T08:57:36.466Z,16.73
2023-04-22T09:00:11.219Z,16.78
2023-04-22T09:02:45.796Z,16.93
2023-04-22T09:05:18.216Z,17.07
2023-04-22T09:07:49.853Z,17.15
2023-04-22T09:10:21.372Z,17.34
2023-04-22T09:12:54.424Z,17.44
2023-04-22T09:15:25.945Z,17.61
2023-04-22T09:17:58.647Z,17.69
2023-04-22T09:20:30.406Z,17.85
2023-04-22T09:23:04.158Z,17.92
2023-04-22T09:25:36.134Z,17.95
2023-04-22T09:28:13.028Z,18.13
2023-04-22T09:30:46.066Z,18.18
2023-04-22T09:33:17.786Z,18.23
2023-04-22T09:35:49.291Z,18.34
2023-04-22T09:38:20.906Z,18.44
2023-04-22T09:40:52.389Z,18.63
2023-04-22T09:43:23.899Z,18.75
2023-04-22T09:45:59.775Z,18.76
2023-04-22T09:48:31.342Z,18.85
2023-04-22T09:51:15.668Z,19.03
2023-04-22T09:53:59.430Z,18.97
2023-04-22T09:56:48.234Z,19.18
2023-04-22T09:59:20.533Z,19.30
2023-04-22T10:01:55.618Z,19.49
2023-04-22T10:04:27.438Z,19.61
2023-04-22T10:06:59.851Z,19.70
2023-04-22T10:09:31.377Z,19.84
2023-04-22T10:12:03.317Z,20.01
2023-04-22T10:14:34.856Z,20.04
2023-04-22T10:17:07.303Z,19.83
2023-04-22T10:19:40.838Z,20.09
2023-04-22T10:22:13.340Z,20.26
2023-04-22T10:24:47.714Z,20.09
2023-04-22T10:27:22.334Z,20.33
2023-04-22T10:29:56.633Z,20.44
2023-04-22T10:32:28.210Z,20.69
2023-04-22T10:35:14.488Z,20.82
2023-04-22T10:37:46.274Z,21.05
2023-04-22T10:40:18.748Z,21.02
2023-04-22T10:42:52.692Z,21.15
2023-04-22T10:45:26.410Z,21.25
2023-04-22T10:48:03.888Z,21.37
2023-04-22T10:50:36.006Z,21.17
2023-04-22T10:53:30.074Z,21.28
2023-04-22T10:56:03.061Z,21.55
2023-04-22T10:58:34.569Z,21.63
2023-04-22T11:01:14.822Z,21.74
2023-04-22T11:03:46.518Z,21.81
2023-04-22T11:06:22.243Z,21.82
2023-04-22T11:09:09.313Z,22.06
2023-04-22T11:11:41.198Z,22.22
2023-04-22T11:14:12.873Z,22.37
2023-04-22T11:16:47.958Z,22.45
2023-04-22T11:19:19.492Z,22.62
2023-04-22T11:21:52.962Z,22.82
2023-04-22T11:24:24.444Z,23.03
2023-04-22T11:26:56.991Z,23.05
2023-04-22T11:29:28.474Z,23.38
2023-04-22T11:31:59.995Z,23.51
2023-04-22T11:34:31.567Z,23.70
2023-04-22T11:37:03.766Z,23.46
2023-04-22T11:39:39.932Z,23.69
2023-04-22T11:42:22.687Z,23.89
2023-04-22T11:44:54.273Z,24.10
2023-04-22T11:47:30.255Z,24.32
2023-04-22T11:50:05.202Z,24.18
2023-04-22T11:52:45.609Z,24.46
2023-04-22T11:55:23.343Z,24.51
2023-04-22T11:57:56.281Z,24.61
2023-04-22T12:00:37.295Z,24.69
2023-04-22T12:03:09.068Z,24.94
2023-04-22T12:05:41.857Z,24.94
2023-04-22T12:08:17.511Z,25.00
2023-04-22T12:10:56.080Z,25.23
2023-04-22T12:13:47.901Z,24.68
2023-04-22T12:16:20.107Z,25.17
2023-04-22T12:18:53.883Z,25.35
2023-04-22T12:21:28.369Z,25.43
2023-04-22T12:23:59.978Z,25.54
2023-04-22T12:26:31.897Z,25.19
2023-04-22T12:29:04.624Z,25.02
2023-04-22T12:31:36.201Z,24.45
2023-04-22T12:34:07.790Z,24.80
2023-04-22T12:36:39.314Z,25.00
2023-04-22T12:39:10.794Z,25.25
2023-04-22T12:41:42.348Z,25.02
2023-04-22T12:44:13.904Z,25.32
2023-04-22T12:46:46.509Z,25.24
2023-04-22T12:49:18.222Z,24.92
2023-04-22T12:51:49.931Z,24.76
2023-04-22T12:54:22.144Z,25.07
2023-04-22T12:56:53.638Z,24.92
2023-04-22T12:59:25.324Z,25.10
2023-04-22T13:01:57.264Z,25.09
2023-04-22T13:04:28.883Z,25.15
2023-04-22T13:07:00.541Z,25.52
2023-04-22T13:09:32.101Z,25.45
2023-04-22T13:12:03.685Z,24.90
2023-04-22T13:14:35.390Z,25.33
2023-04-22T13:17:06.954Z,25.57
2023-04-22T13:19:38.682Z,25.90
2023-04-22T13:22:10.305Z,25.95
2023-04-22T13:24:41.912Z,26.16
2023-04-22T13:27:13.584Z,26.49
2023-04-22T13:29:45.558Z,26.40
2023-04-22T13:32:17.240Z,26.79
2023-04-22T13:34:48.810Z,26.89
2023-04-22T13:37:21.371Z,26.49
2023-04-22T13:39:52.903Z,26.74
2023-04-22T13:42:24.386Z,26.54
2023-04-22T13:44:55.912Z,26.39
2023-04-22T13:47:27.422Z,26.20
2023-04-22T13:50:00.762Z,26.03
2023-04-22T13:52:32.378Z,25.81
2023-04-22T13:55:04.372Z,25.35
2023-04-22T13:57:35.868Z,24.95
2023-04-22T14:00:09.407Z,25.51
2023-04-22T14:02:41.158Z,25.89
2023-04-22T14:05:12.657Z,26.25
2023-04-22T14:07:44.180Z,26.75
2023-04-22T14:10:17.781Z,26.73
2023-04-22T14:12:50.959Z,27.22
2023-04-22T14:15:22.770Z,27.60
2023-04-22T14:17:54.358Z,28.04
2023-04-22T14:20:25.918Z,28.46
2023-04-22T14:22:57.404Z,29.01
2023-04-22T14:25:28.925Z,29.51
2023-04-22T14:28:02.129Z,30.18
2023-04-22T14:30:33.726Z,30.65
2023-04-22T14:33:08.081Z,31.52
2023-04-22T14:35:39.914Z,31.57
2023-04-22T14:38:12.333Z,32.47
2023-04-22T14:40:44.224Z,35.41
2023-04-22T14:43:16.921Z,34.55
2023-04-22T14:45:48.513Z,33.44
2023-04-22T14:48:20.107Z,31.79
2023-04-22T14:50:51.688Z,30.32
2023-04-22T14:53:23.280Z,28.99
2023-04-22T14:55:55.782Z,27.28
2023-04-22T14:58:31.110Z,26.86
2023-04-22T15:01:02.709Z,26.63
2023-04-22T15:03:35.774Z,26.24
2023-04-22T15:06:07.651Z,26.88
2023-04-22T15:08:40.033Z,28.18
2023-04-22T15:11:11.621Z,29.18
2023-04-22T15:13:43.200Z,31.04
2023-04-22T15:16:14.594Z,32.31
2023-04-22T15:18:46.226Z,33.78
2023-04-22T15:21:17.719Z,34.17
2023-04-22T15:23:49.248Z,34.13
2023-04-22T15:26:20.775Z,33.83
2023-04-22T15:28:52.297Z,32.22
2023-04-22T15:31:23.834Z,29.51
2023-04-22T15:33:55.422Z,29.16
2023-04-22T15:36:26.969Z,28.77
2023-04-22T15:38:59.394Z,27.05
2023-04-22T15:41:32.080Z,27.85
2023-04-22T15:44:05.134Z,28.37
2023-04-22T15:46:37.757Z,28.91
2023-04-22T15:49:09.244Z,28.40
2023-04-22T15:51:40.942Z,28.19
2023-04-22T15:54:12.905Z,27.81
2023-04-22T15:56:44.485Z,27.18
2023-04-22T15:59:16.056Z,25.91
2023-04-22T16:01:48.999Z,27.57
2023-04-22T16:04:21.482Z,26.85
2023-04-22T16:06:53.362Z,26.64
2023-04-22T16:09:24.748Z,25.38
2023-04-22T16:11:56.772Z,25.36
2023-04-22T16:14:28.272Z,25.10
2023-04-22T16:16:59.867Z,24.80
2023-04-22T16:19:31.424Z,24.55
2023-04-22T16:22:03.028Z,24.36
2023-04-22T16:24:34.533Z,24.24
2023-04-22T16:27:06.838Z,24.06
2023-04-22T16:29:38.496Z,24.12
2023-04-22T16:32:10.209Z,24.16
2023-04-22T16:34:41.858Z,24.16
2023-04-22T16:37:13.467Z,24.17
2023-04-22T16:39:45.399Z,24.22
2023-04-22T16:42:17.019Z,24.15
2023-04-22T16:44:48.609Z,24.12
2023-04-22T16:47:20.214Z,24.10
2023-04-22T16:49:51.807Z,23.88
2023-04-22T16:52:23.370Z,23.74
2023-04-22T16:54:54.911Z,23.58
2023-04-22T16:57:26.475Z,23.43
2023-04-22T16:59:58.097Z,23.30
2023-04-22T17:02:29.742Z,23.14
2023-04-22T17:05:02.520Z,22.91
2023-04-22T17:07:34.025Z,22.73
2023-04-22T17:10:06.320Z,22.56
2023-04-22T17:12:37.793Z,22.31
2023-04-22T17:15:09.694Z,22.19
2023-04-22T17:17:41.308Z,22.02
2023-04-22T17:20:12.838Z,21.84
2023-04-22T17:22:44.906Z,21.74
2023-04-22T17:25:16.533Z,21.66
2023-04-22T17:27:48.040Z,21.54
2023-04-22T17:30:19.582Z,21.44
2023-04-22T17:32:51.180Z,21.34
2023-04-22T17:35:22.783Z,21.26
2023-04-22T17:37:54.418Z,21.14
2023-04-22T17:40:26.345Z,21.05
2023-04-22T17:42:57.672Z,20.93
2023-04-22T17:45:29.172Z,20.81
2023-04-22T17:48:00.829Z,20.74
2023-04-22T17:50:32.346Z,20.64
2023-04-22T17:53:03.808Z,20.53
2023-04-22T17:55:35.414Z,20.39
2023-04-22T17:58:06.935Z,20.30
2023-04-22T18:00:38.652Z,20.18
2023-04-22T18:03:10.399Z,20.09
2023-04-22T18:05:44.489Z,19.98
2023-04-22T18:08:16.029Z,19.82
2023-04-22T18:10:47.554Z,19.71
2023-04-22T18:13:19.069Z,19.62
2023-04-22T18:15:50.600Z,19.49
2023-04-22T18:18:22.141Z,19.41
2023-04-22T18:20:53.798Z,19.31
2023-04-22T18:23:25.278Z,19.23
2023-04-22T18:25:56.787Z,19.20
2023-04-22T18:28:28.406Z,19.12
2023-04-22T18:30:59.924Z,19.07
2023-04-22T18:33:31.469Z,19.00
2023-04-22T18:36:03.224Z,18.96
2023-04-22T18:38:34.919Z,18.91
2023-04-22T18:41:06.798Z,18.86
2023-04-22T18:43:38.344Z,18.83
2023-04-22T18:46:09.909Z,18.78
2023-04-22T18:48:41.548Z,18.78
2023-04-22T18:51:13.564Z,18.73
2023-04-22T18:53:44.982Z,18.71
2023-04-22T18:56:16.539Z,18.73
2023-04-22T18:58:48.260Z,18.59
2023-04-22T19:01:19.933Z,18.57
2023-04-22T19:03:51.503Z,18.56
2023-04-22T19:06:23.091Z,18.54
2023-04-22T19:08:55.987Z,18.50
2023-04-22T19:11:27.829Z,18.49
2023-04-22T19:14:01.846Z,18.50
2023-04-22T19:16:33.592Z,18.45
2023-04-22T19:19:05.438Z,18.44
2023-04-22T19:21:38.048Z,18.46
2023-04-22T19:24:09.846Z,18.45
2023-04-22T19:26:41.451Z,18.34
2023-04-22T19:29:16.161Z,18.34
2023-04-22T19:31:47.730Z,18.29
2023-04-22T19:34:19.434Z,18.29
2023-04-22T19:36:51.235Z,18.25
2023-04-22T19:39:22.934Z,18.22
2023-04-22T19:41:54.391Z,17.99
2023-04-22T19:44:26.025Z,17.98
2023-04-22T19:46:58.115Z,17.85
2023-04-22T19:49:31.781Z,17.81
2023-04-22T19:52:03.605Z,17.76
2023-04-22T19:54:36.887Z,17.62
2023-04-22T19:57:10.408Z,17.62
2023-04-22T19:59:42.495Z,17.46
2023-04-22T20:02:15.507Z,17.43
2023-04-22T20:04:47.260Z,17.35
2023-04-22T20:07:19.649Z,17.28
2023-04-22T20:09:52.276Z,17.23
2023-04-22T20:12:24.170Z,17.09
2023-04-22T20:14:57.556Z,17.09
2023-04-22T20:17:35.560Z,17.10
2023-04-22T20:20:13.733Z,16.99
2023-04-22T20:22:46.097Z,16.92
2023-04-22T20:25:17.734Z,16.91
2023-04-22T20:27:51.303Z,16.88
2023-04-22T20:30:23.142Z,16.79
2023-04-22T20:32:54.874Z,16.70
2023-04-22T20:35:26.647Z,16.64
2023-04-22T20:38:03.021Z,16.61
2023-04-22T20:40:35.726Z,16.42
2023-04-22T20:43:07.777Z,16.31
2023-04-22T20:45:39.453Z,16.33
2023-04-22T20:48:11.390Z,16.27
2023-04-22T20:50:43.915Z,16.23
2023-04-22T20:53:15.898Z,16.18
2023-04-22T20:55:47.595Z,16.16
2023-04-22T20:58:19.401Z,16.19
2023-04-22T21:00:52.064Z,16.14
2023-04-22T21:03:26.639Z,16.14
2023-04-22T21:05:59.979Z,16.08
2023-04-22T21:08:33.885Z,16.03
2023-04-22T21:11:05.990Z,15.97
2023-04-22T21:13:37.769Z,15.88
2023-04-22T21:16:10.444Z,15.83
2023-04-22T21:18:44.643Z,15.76
2023-04-22T21:21:17.893Z,15.74
2023-04-22T21:23:49.752Z,15.73
2023-04-22T21:26:22.195Z,15.77
2023-04-22T21:28:54.055Z,15.74
2023-04-22T21:31:27.060Z,15.74
2023-04-22T21:34:00.452Z,15.72
2023-04-22T21:36:32.797Z,15.75
2023-04-22T21:39:04.531Z,15.75
2023-04-22T21:41:36.083Z,15.71
2023-04-22T21:44:07.614Z,15.73
2023-04-22T21:46:39.150Z,15.70
2023-04-22T21:49:11.815Z,15.68
2023-04-22T21:51:43.412Z,15.65
2023-04-22T21:54:14.954Z,15.62
2023-04-22T21:56:46.611Z,15.57
2023-04-22T21:59:18.169Z,15.57
2023-04-22T22:01:50.064Z,15.47
2023-04-22T22:04:22.054Z,15.49
2023-04-22T22:06:53.752Z,15.43
2023-04-22T22:09:26.458Z,15.39
2023-04-22T22:11:58.030Z,15.41
2023-04-22T22:14:29.661Z,15.45
2023-04-22T22:17:01.553Z,15.47
2023-04-22T22:19:34.035Z,15.51
2023-04-22T22:22:05.765Z,15.55
2023-04-22T22:24:37.303Z,15.59
2023-04-22T22:27:09.827Z,15.59
2023-04-22T22:29:41.484Z,15.61
2023-04-22T22:32:14.282Z,15.63
2023-04-22T22:34:45.958Z,15.62
2023-04-22T22:37:17.647Z,15.56
2023-04-22T22:39:49.215Z,15.56
2023-04-22T22:42:20.791Z,15.61
2023-04-22T22:44:52.404Z,15.61
2023-04-22T22:47:25.312Z,15.61
2023-04-22T22:49:57.060Z,15.58
2023-04-22T22:52:28.839Z,15.58
2023-04-22T22:55:00.419Z,15.52
2023-04-22T22:57:31.991Z,15.52
2023-04-22T23:00:05.819Z,15.45
2023-04-22T23:02:37.526Z,15.44
2023-04-22T23:05:10.862Z,15.42
2023-04-22T23:07:42.573Z,15.46
2023-04-22T23:10:14.025Z,15.41
2023-04-22T23:12:45.734Z,15.37
2023-04-22T23:15:17.246Z,15.36
2023-04-22T23:17:50.760Z,15.39
2023-04-22T23:20:22.346Z,15.32
2023-04-22T23:22:54.564Z,15.24
2023-04-22T23:25:26.088Z,15.23
2023-04-22T23:27:57.898Z,15.22
2023-04-22T23:30:29.745Z,15.21
2023-04-22T23:33:04.307Z,15.19
2023-04-22T23:35:37.457Z,15.14
2023-04-22T23:38:09.676Z,15.05
2023-04-22T23:40:41.108Z,15.06
2023-04-22T23:43:12.678Z,14.97
2023-04-22T23:45:44.564Z,14.98
2023-04-22T23:48:16.073Z,14.98
2023-04-22T23:50:47.560Z,15.02
2023-04-22T23:53:19.056Z,15.03
2023-04-22T23:55:50.819Z,14.90
2023-04-22T23:58:22.499Z,14.92
